Aérodrome :
LOGIN :

S'inscrire | Disclaimer

   EN    FR    IT 

 










Légende :    VFR   VFR Marginal   IFR   IFR Intensif   IFR Très Intensif
Visi : 
Plafond : 
>= 8 km
>= 3000ft
5 à 8 km
1000 à 3000 ft
1500m à 5 km
500 à 1000 ft
800 à 1500m
200 à 500 ft
< 800m
< 200 ft
Symboles :   Orages  Brouillard  Fortes neiges  Fortes précipitations  Vent > 20 kt
SIGMETs :   Divers  Orages  Givrage  Turbulence  Onde Orograph.  Cendres Volcan.







- Altitude de l'aérodrome : 194 ft


EBCV - Chièvres

DERNIER METAR :
  • 291725Z AUTO 07010KT 9999 NCD 13/01 Q1014 BLU

METARs EXPIRÉS :
  • 291655Z AUTO 10008KT 9999 NCD 14/02 Q1015 BLU
  • 291625Z AUTO 09006KT 9999 NCD 14/M00 Q1015 BLU
  • 291555Z AUTO 12010KT 9999 NCD 15/00 Q1015 BLU
  • 291525Z AUTO 11006KT 9999 BKN058/// 14/02 Q1016 BLU
  • 291455Z AUTO 08004KT 9999 OVC057/// 14/01 Q1016 BLU

TAF TAF EBCV
Valide du 29 à 13h jusqu'au 29 à 22h UTC


291141Z 2913/2922 22006KT 9999 SCT025 SCT050 BY EBWM
Pas de NOTAMs connus pour ce terrain.



MET'MAP, la Météo Aéronautique d'un coup d'oeil ! - Copyright ORBIFLY Décembre 2007 - Disclaimer

ORBIFLY MET'MAP TEAM :

Programmation & Développement : Alexandra Zaïnal
Conception & Développement : Baudouin d'Aumeries
Co-Programmation & Développement : Marc-Olivier Méhu
Soutien technique & logistique : Manuel Goepfert

Contact : metmap@orbifly.com




SOURCES & CREDITS :

   NOAA